This is the latest recevied weather packets stored in our database for station/object KM8ICE-10. If no packets are shown the sender has not sent any weather packets the latest 10 day(s).
| Time | Temp. | Humidity | Pressure | Rain* | Wind** | Luminosity | Snow |
|---|---|---|---|---|---|---|---|
| 1777828808 | 16.67° C | 35% | 1020.4 hPa | 0 mm | - | - | - |
| 1777828209 | 17.22° C | 31% | 1020.7 hPa | 0 mm | - | - | - |
| 1777683008 | 12.22° C | 51% | 1017.3 hPa | 0 mm | - | - | - |
| 1777682408 | 12.78° C | 49% | 1017.3 hPa | 0 mm | - | - | - |
| 1777681809 | 12.78° C | 49% | 1017.2 hPa | 0 mm | - | - | - |
| 1777681208 | 13.33° C | 50% | 1017.3 hPa | 0 mm | - | - | - |
| 1777680608 | 13.33° C | 48% | 1016.9 hPa | 0 mm | - | - | - |
| 1777680008 | 13.33° C | 46% | 1016.6 hPa | 0 mm | - | - | - |
| 1777492208 | 20° C | 58% | 1013.4 hPa | 0 mm | - | - | - |
| 1777491614 | 20.56° C | 56% | 1013.5 hPa | 0 mm | - | - | - |
| 1777491008 | 19.44° C | 61% | 1013.5 hPa | 0 mm | - | - | - |
| 1777490408 | 19.44° C | 64% | 1013.5 hPa | 0 mm | - | - | - |
| 1777489808 | 19.44° C | 58% | 1013.4 hPa | 0 mm | - | - | - |
| 1777489208 | 18.89° C | 64% | 1013.5 hPa | 0 mm | - | - | - |
| 1777488608 | 19.44° C | 64% | 1013.5 hPa | 0 mm | - | - | - |
| 1777488008 | 18.89° C | 67% | 1013.6 hPa | 0 mm | - | - | - |
| 1777487408 | 18.33° C | 67% | 1013.6 hPa | 0 mm | - | - | - |
| 1777486807 | 18.33° C | 73% | 1013.6 hPa | 0 mm | - | - | - |
| 1777486208 | 17.78° C | 74% | 1013.7 hPa | 0 mm | - | - | - |
| 1777485608 | 17.22° C | 79% | 1013.7 hPa | 0 mm | - | - | - |
| 1777485008 | 16.11° C | 83% | 1013.8 hPa | 0 mm | - | - | - |
| 1777484408 | 16.11° C | 83% | 1013.8 hPa | 0 mm | - | - | - |
| 1777483808 | 16.11° C | 83% | 1013.8 hPa | 0 mm | - | - | - |
| 1777483208 | 15.56° C | 88% | 1013.8 hPa | 0 mm | - | - | - |
| 1777482607 | 15° C | 90% | 1013.8 hPa | 0 mm | - | - | - |
* Rain latest hour (hover to see other rain measurements)
** Current wind speed in m/s (hover to see current wind gust speed)